Time;durP1;ratioP1;P1;durP2;ratioP2;P2;SDS_P1;SDS_P2;PMS_P1;PMS_P2;Temp;Humidity;BMP_temperature;BMP_pressure;BME280_temperature;BME280_humidity;BME280_pressure;Samples;Min_cycle;Max_cycle;Signal;HPM_P1;HPM_P2
2021/10/12 00:00:17;;;;;;;9.77;3.72;;;10.00;99.90;;;9.62;100.00;102496.53;4201997;28;20057;-72
2021/10/12 00:02:18;;;;;;;8.10;2.97;;;9.90;99.90;;;9.67;100.00;102500.56;4202252;28;20032;-72
2021/10/12 00:04:18;;;;;;;7.68;3.53;;;9.90;99.90;;;9.56;100.00;102492.56;4202149;28;20032;-72
2021/10/12 00:06:19;;;;;;;6.72;3.70;;;9.90;99.90;;;9.47;100.00;102493.19;4202059;28;20392;-72
2021/10/12 00:08:20;;;;;;;6.68;3.17;;;9.80;99.90;;;9.54;100.00;102493.63;4201524;28;20025;-72
2021/10/12 00:10:21;;;;;;;11.88;3.95;;;9.80;99.90;;;9.56;100.00;102492.56;4202046;28;20028;-72
2021/10/12 00:12:23;;;;;;;8.82;3.28;;;9.80;99.90;;;9.59;100.00;102496.78;4202025;28;20025;-72
2021/10/12 00:14:24;;;;;;;7.82;3.25;;;9.80;99.90;;;9.49;100.00;102493.09;4201891;28;20388;-72
2021/10/12 00:16:25;;;;;;;6.35;2.20;;;9.70;99.90;;;9.46;100.00;102491.53;4200582;28;20052;-72
2021/10/12 00:18:25;;;;;;;7.13;2.60;;;9.70;99.90;;;9.37;100.00;102497.44;4200802;28;20025;-72
2021/10/12 00:20:26;;;;;;;7.95;3.17;;;9.70;99.90;;;9.33;100.00;102502.06;4201912;28;20039;-72
2021/10/12 00:22:27;;;;;;;8.15;3.00;;;9.70;99.90;;;9.29;100.00;102495.31;4201894;28;20029;-72
2021/10/12 00:24:28;;;;;;;5.30;3.17;;;9.70;99.90;;;9.35;100.00;102500.16;4201589;28;20392;-72
2021/10/12 00:26:30;;;;;;;9.23;3.03;;;9.60;99.90;;;9.29;100.00;102495.31;4201849;28;20511;-72
2021/10/12 00:28:31;;;;;;;5.63;2.63;;;9.60;99.90;;;9.30;100.00;102501.41;4201764;28;20025;-72
2021/10/12 00:30:32;;;;;;;7.15;2.63;;;9.60;99.90;;;9.34;100.00;102497.63;4200558;28;20058;-72
2021/10/12 00:32:34;;;;;;;5.00;2.30;;;9.60;99.90;;;9.38;100.00;102509.63;4201742;28;20025;-72
2021/10/12 00:34:35;;;;;;;6.53;2.53;;;9.60;99.90;;;9.23;100.00;102510.66;4201930;28;20415;-72
2021/10/12 00:36:36;;;;;;;8.45;2.63;;;9.50;99.90;;;9.11;100.00;102512.34;4201758;28;20462;-72
2021/10/12 00:38:37;;;;;;;8.93;2.65;;;9.50;99.90;;;9.06;100.00;102509.19;4200214;28;20028;-72
2021/10/12 00:40:38;;;;;;;5.18;2.38;;;9.50;99.90;;;9.06;100.00;102508.34;4200366;28;20127;-72
2021/10/12 00:42:39;;;;;;;7.65;2.47;;;9.50;99.90;;;9.14;100.00;102517.41;4201397;28;20029;-72
2021/10/12 00:44:40;;;;;;;13.40;3.70;;;9.50;99.90;;;9.20;100.00;102506.47;4201088;28;20526;-72
2021/10/12 00:46:41;;;;;;;4.68;2.97;;;9.50;99.90;;;9.23;100.00;102506.25;4200464;28;20021;-72
2021/10/12 00:48:42;;;;;;;5.93;3.03;;;9.50;99.90;;;9.15;100.00;102492.78;4201567;28;20025;-72
2021/10/12 00:50:43;;;;;;;8.55;3.47;;;9.50;99.90;;;9.43;100.00;102503.13;4200319;28;20028;-72
2021/10/12 00:52:43;;;;;;;8.75;3.08;;;9.60;99.90;;;9.57;100.00;102496.03;4200197;28;20047;-72
2021/10/12 00:54:44;;;;;;;7.45;3.10;;;9.70;99.90;;;9.62;100.00;102500.03;4201597;28;20032;-72
2021/10/12 00:56:46;;;;;;;6.32;3.20;;;9.70;99.90;;;9.49;100.00;102495.72;4201623;28;20060;-72
2021/10/12 00:58:48;;;;;;;6.38;3.33;;;9.70;99.90;;;9.79;100.00;102502.34;4183570;28;20132;-72
2021/10/12 01:00:49;;;;;;;6.72;3.05;;;9.80;99.90;;;9.72;100.00;102497.59;4188520;28;20039;-72
2021/10/12 01:02:50;;;;;;;10.63;3.78;;;9.80;99.90;;;9.70;100.00;102492.44;4201497;28;20017;-72
2021/10/12 01:04:51;;;;;;;9.00;3.75;;;9.90;99.90;;;9.78;100.00;102500.66;4200232;28;20067;-72
2021/10/12 01:06:53;;;;;;;9.25;4.18;;;9.90;99.90;;;9.76;100.00;102499.09;4200182;28;20021;-72
2021/10/12 01:08:54;;;;;;;6.72;3.88;;;10.00;99.90;;;9.68;100.00;102490.84;4201274;28;20028;-72
2021/10/12 01:10:55;;;;;;;7.70;3.40;;;10.00;99.90;;;9.66;100.00;102492.75;4201401;28;20083;-72
2021/10/12 01:12:57;;;;;;;13.65;4.32;;;9.90;99.90;;;9.70;100.00;102483.69;4201336;28;20492;-72
2021/10/12 01:14:58;;;;;;;8.70;3.65;;;9.90;99.90;;;9.60;100.00;102480.88;4201328;28;20025;-72
2021/10/12 01:16:59;;;;;;;9.40;3.67;;;9.90;99.90;;;9.70;100.00;102481.91;4201275;28;20072;-72
2021/10/12 01:19:08;;;;;;;7.53;3.40;;;9.90;99.90;;;9.61;100.00;102482.56;4201480;28;20086;-72
2021/10/12 01:21:09;;;;;;;9.00;3.65;;;9.90;99.90;;;9.74;100.00;102477.25;4200111;28;20031;-72
2021/10/12 01:23:12;;;;;;;9.48;4.10;;;9.90;99.90;;;9.89;100.00;102479.63;4200986;28;20028;-72
2021/10/12 01:25:16;;;;;;;11.30;3.20;;;10.00;99.90;;;9.80;100.00;102480.28;4200319;28;20419;-72
2021/10/12 01:27:22;;;;;;;12.13;3.80;;;10.00;99.90;;;9.55;100.00;102475.09;4200230;28;20077;-72
2021/10/12 01:29:23;;;;;;;9.32;4.00;;;9.90;99.90;;;9.52;100.00;102471.81;4201295;28;20036;-72
2021/10/12 01:31:27;;;;;;;10.00;3.50;;;9.90;99.90;;;9.68;100.00;102473.25;4201359;28;20032;-72
2021/10/12 01:33:27;;;;;;;13.27;4.68;;;9.90;99.90;;;9.83;100.00;102480.06;4183353;28;20119;-72
2021/10/12 01:35:29;;;;;;;6.35;3.50;;;10.00;99.90;;;9.78;100.00;102476.09;4199925;28;20033;-72
2021/10/12 01:37:30;;;;;;;9.70;3.55;;;9.90;99.90;;;9.61;100.00;102472.03;4199830;28;20111;-72
2021/10/12 01:39:31;;;;;;;7.82;3.55;;;9.90;99.90;;;9.77;100.00;102471.75;4201009;28;20051;-72
2021/10/12 01:41:32;;;;;;;10.10;3.78;;;9.90;99.90;;;9.81;100.00;102466.19;4201019;28;20080;-72
2021/10/12 01:43:33;;;;;;;7.65;3.70;;;10.00;99.90;;;9.73;100.00;102459.78;4199926;28;20060;-72
2021/10/12 01:45:37;;;;;;;7.20;3.20;;;9.90;99.90;;;9.67;100.00;102461.06;4199781;28;20425;-72
2021/10/12 01:47:39;;;;;;;9.60;3.10;;;10.00;99.90;;;9.70;100.00;102460.84;4201169;28;20522;-72
2021/10/12 01:49:40;;;;;;;7.10;3.42;;;9.90;99.90;;;9.69;100.00;102464.41;4200997;28;20071;-72
2021/10/12 01:51:41;;;;;;;7.82;3.55;;;9.90;99.90;;;9.79;100.00;102459.34;4201091;28;20116;-72
2021/10/12 01:53:42;;;;;;;8.10;4.28;;;9.90;99.90;;;9.72;100.00;102466.81;4200816;28;20035;-72
2021/10/12 01:55:43;;;;;;;12.02;3.67;;;10.00;99.90;;;9.72;100.00;102465.97;4203092;28;20142;-72
2021/10/12 01:57:44;;;;;;;14.05;3.83;;;9.90;99.90;;;9.65;100.00;102455.03;4204072;28;20734;-72
2021/10/12 01:59:46;;;;;;;9.13;3.97;;;9.90;99.90;;;9.71;100.00;102462.50;4204310;28;20032;-72
2021/10/12 02:01:47;;;;;;;9.80;3.58;;;9.90;99.90;;;9.71;100.00;102459.84;4204049;28;20403;-72
2021/10/12 02:03:48;;;;;;;8.23;3.10;;;9.90;99.90;;;9.74;100.00;102459.66;4202895;28;20488;-72
2021/10/12 02:05:49;;;;;;;9.93;4.10;;;9.90;99.90;;;9.73;100.00;102457.97;4202777;28;20052;-72
2021/10/12 02:07:50;;;;;;;9.57;3.92;;;9.90;99.90;;;9.65;100.00;102459.44;4203773;28;20099;-72
2021/10/12 02:09:51;;;;;;;14.57;3.88;;;9.90;99.90;;;9.57;100.00;102452.09;4203996;28;20087;-72
2021/10/12 02:11:52;;;;;;;7.93;2.95;;;9.90;99.90;;;9.40;100.00;102439.28;4203804;28;20025;-72
2021/10/12 02:13:53;;;;;;;9.35;3.97;;;9.80;99.90;;;9.40;100.00;102437.47;4204017;28;20028;-72
2021/10/12 02:15:54;;;;;;;7.28;3.38;;;9.70;99.90;;;9.42;100.00;102434.72;4203774;28;20048;-72
2021/10/12 02:17:55;;;;;;;7.35;3.30;;;9.80;99.90;;;9.45;100.00;102435.38;4203846;28;20443;-72
2021/10/12 02:19:56;;;;;;;10.18;3.05;;;9.70;99.90;;;9.34;100.00;102427.38;4202590;28;20069;-72
2021/10/12 02:21:57;;;;;;;7.68;3.30;;;9.70;99.90;;;9.32;100.00;102431.88;4203859;28;20043;-72
2021/10/12 02:23:59;;;;;;;9.95;3.58;;;9.60;99.90;;;9.30;100.00;102430.31;4203656;28;20017;-72
2021/10/12 02:26:00;;;;;;;7.18;2.67;;;9.60;99.90;;;9.15;100.00;102434.00;4202631;28;20028;-72
2021/10/12 02:28:00;;;;;;;11.30;3.10;;;9.60;99.90;;;9.14;100.00;102427.06;4202514;28;20023;-72
2021/10/12 02:30:03;;;;;;;8.80;3.40;;;9.50;99.90;;;9.18;100.00;102423.25;4202702;28;20551;-72
2021/10/12 02:32:04;;;;;;;7.63;3.38;;;9.50;99.90;;;9.08;100.00;102425.69;4185911;28;20029;-72
2021/10/12 02:34:05;;;;;;;7.82;2.85;;;9.40;99.90;;;9.01;100.00;102428.84;4197365;28;20036;-72
2021/10/12 02:36:06;;;;;;;8.13;3.38;;;9.40;99.90;;;8.97;100.00;102419.47;4203599;28;20034;-72
2021/10/12 02:38:07;;;;;;;6.28;2.72;;;9.40;99.90;;;9.01;100.00;102427.06;4202343;28;20038;-72
2021/10/12 02:40:09;;;;;;;6.95;3.97;;;9.30;99.90;;;8.88;100.00;102413.03;4202378;28;20029;-72
2021/10/12 02:42:10;;;;;;;9.95;3.05;;;9.40;99.90;;;8.96;100.00;102420.44;4203617;28;20033;-72
2021/10/12 02:44:11;;;;;;;9.80;3.97;;;9.30;99.90;;;9.01;100.00;102411.28;4203347;28;20439;-72
2021/10/12 02:46:13;;;;;;;6.07;2.75;;;9.40;99.90;;;9.00;100.00;102419.25;4203509;28;20432;-72
2021/10/12 02:48:14;;;;;;;6.07;2.70;;;9.40;99.90;;;8.91;100.00;102410.22;4203336;28;20483;-72
2021/10/12 02:50:15;;;;;;;8.80;3.13;;;9.30;99.90;;;9.01;100.00;102420.97;4202214;28;20492;-72
2021/10/12 02:52:16;;;;;;;11.50;2.85;;;9.30;99.90;;;9.03;100.00;102414.63;4203249;28;20040;-72
2021/10/12 02:54:17;;;;;;;7.25;3.33;;;9.30;99.90;;;8.94;100.00;102411.78;4203150;28;20017;-72
2021/10/12 02:56:18;;;;;;;8.07;3.42;;;9.30;99.90;;;9.13;100.00;102413.06;4202147;28;20044;-72
2021/10/12 02:58:19;;;;;;;6.28;3.40;;;9.40;99.90;;;9.04;100.00;102415.47;4203230;28;20052;-72
2021/10/12 03:00:20;;;;;;;7.75;2.90;;;9.30;99.90;;;9.21;100.00;102417.78;4203008;28;20052;-72
2021/10/12 03:02:21;;;;;;;9.65;2.83;;;9.40;99.90;;;9.26;100.00;102418.31;4203293;28;20028;-72
2021/10/12 03:04:22;;;;;;;11.48;3.72;;;9.40;99.90;;;9.28;100.00;102413.78;4203184;28;20038;-72
2021/10/12 03:06:23;;;;;;;10.65;3.45;;;9.50;99.90;;;9.23;100.00;102406.19;4202516;28;20074;-72
2021/10/12 03:08:24;;;;;;;8.23;3.15;;;9.60;99.90;;;9.18;100.00;102404.84;4202721;28;20111;-72
2021/10/12 03:10:25;;;;;;;10.43;3.17;;;9.50;99.90;;;9.10;100.00;102399.25;4203169;28;20046;-72
2021/10/12 03:12:25;;;;;;;6.72;3.33;;;9.50;99.90;;;9.04;100.00;102399.69;4203020;28;20020;-72
2021/10/12 03:14:26;;;;;;;11.43;3.60;;;9.40;99.90;;;8.87;100.00;102382.41;4203084;28;20495;-72
2021/10/12 03:16:28;;;;;;;9.32;3.47;;;9.30;99.90;;;8.88;100.00;102392.00;4202813;28;20127;-72
2021/10/12 03:18:31;;;;;;;9.05;3.63;;;9.30;99.90;;;8.88;100.00;102387.56;4203166;28;20025;-72
2021/10/12 03:20:32;;;;;;;6.80;4.07;;;9.30;99.90;;;8.81;100.00;102391.56;4202814;28;20029;-72
2021/10/12 03:22:33;;;;;;;8.57;4.55;;;9.20;99.90;;;8.86;100.00;102381.59;4202800;28;20031;-72
2021/10/12 03:24:34;;;;;;;6.78;4.38;;;9.20;99.90;;;8.73;100.00;102369.34;4202540;28;20086;-72
2021/10/12 03:26:36;;;;;;;9.20;4.70;;;9.20;99.90;;;8.83;100.00;102383.59;4201659;28;20029;-72
2021/10/12 03:28:37;;;;;;;11.05;5.28;;;9.20;99.90;;;8.80;100.00;102376.75;4201596;28;20027;-72
2021/10/12 03:30:38;;;;;;;9.32;4.75;;;9.10;99.90;;;8.79;100.00;102375.06;4202736;28;20072;-72
2021/10/12 03:32:39;;;;;;;11.10;5.22;;;9.10;99.90;;;8.81;100.00;102372.31;4202581;28;20062;-72
2021/10/12 03:34:41;;;;;;;10.18;5.68;;;9.10;99.90;;;8.81;100.00;102388.94;4201443;28;20028;-72
2021/10/12 03:36:42;;;;;;;9.40;5.88;;;9.20;99.90;;;8.74;100.00;102371.91;4202660;28;20082;-72
2021/10/12 03:38:43;;;;;;;8.98;5.57;;;9.10;99.90;;;8.65;100.00;102363.78;4201265;28;20029;-72
2021/10/12 03:40:44;;;;;;;10.20;5.47;;;9.10;99.90;;;8.62;100.00;102372.72;4234704;28;20036;-72
2021/10/12 03:42:45;;;;;;;15.90;7.97;;;9.10;99.90;;;8.62;100.00;102367.47;4202451;28;20484;-72
2021/10/12 03:44:46;;;;;;;14.23;9.57;;;9.00;99.90;;;8.64;100.00;102362.94;4201184;28;20516;-72
2021/10/12 03:46:47;;;;;;;17.02;8.60;;;9.00;99.90;;;8.65;100.00;102351.47;4201228;28;20045;-72
2021/10/12 03:48:48;;;;;;;16.15;8.85;;;9.00;99.90;;;8.61;100.00;102364.94;4202376;28;20032;-72
2021/10/12 03:50:49;;;;;;;14.30;8.07;;;8.90;99.90;;;8.66;100.00;102376.00;4202472;28;20399;-72
2021/10/12 03:52:50;;;;;;;14.77;8.15;;;9.00;99.90;;;8.74;100.00;102377.16;4201084;28;20066;-72
2021/10/12 03:54:51;;;;;;;11.85;7.05;;;9.00;99.90;;;8.79;100.00;102366.31;4201205;28;20029;-72
2021/10/12 03:56:51;;;;;;;14.75;8.20;;;9.10;99.90;;;8.78;100.00;102370.72;4202364;28;20056;-72
2021/10/12 03:58:53;;;;;;;12.27;7.78;;;9.00;99.90;;;8.81;100.00;102373.16;4202351;28;20032;-72
2021/10/12 04:00:54;;;;;;;15.68;7.82;;;9.10;99.90;;;8.83;100.00;102376.53;4202287;28;20058;-72
2021/10/12 04:02:55;;;;;;;10.88;5.63;;;9.10;99.90;;;9.03;100.00;102375.16;4202248;28;20025;-72
2021/10/12 04:04:57;;;;;;;13.07;4.97;;;9.10;99.90;;;9.23;100.00;102386.91;4202345;28;20036;-71
2021/10/12 04:06:57;;;;;;;8.45;4.93;;;9.30;99.90;;;9.13;100.00;102375.34;4200823;28;20020;-71
2021/10/12 04:08:58;;;;;;;11.52;5.00;;;9.30;99.90;;;9.00;100.00;102366.63;4201970;28;20024;-72
2021/10/12 04:10:59;;;;;;;8.15;3.85;;;9.30;99.90;;;8.83;100.00;102363.38;4202049;28;20100;-72
2021/10/12 04:13:02;;;;;;;7.15;3.75;;;9.20;99.90;;;8.85;100.00;102352.72;4202014;28;20027;-72
2021/10/12 04:15:03;;;;;;;6.53;3.85;;;9.20;99.90;;;8.95;100.00;102364.31;4201962;28;20039;-72
2021/10/12 04:17:04;;;;;;;10.90;3.55;;;9.20;99.90;;;8.85;100.00;102369.38;4200719;28;20182;-72
2021/10/12 04:19:05;;;;;;;12.82;4.53;;;9.20;99.90;;;8.77;100.00;102361.16;4201110;28;20492;-72
2021/10/12 04:21:06;;;;;;;8.48;3.58;;;9.20;99.90;;;8.98;100.00;102352.72;4200612;28;20028;-72
2021/10/12 04:23:09;;;;;;;8.55;3.85;;;9.20;99.90;;;8.82;100.00;102353.78;4201643;28;20031;-72
2021/10/12 04:25:10;;;;;;;10.48;4.00;;;9.10;99.90;;;8.76;100.00;102362.09;4202014;28;20102;-72
2021/10/12 04:27:11;;;;;;;8.10;3.17;;;9.20;99.90;;;8.76;100.00;102367.38;4184143;28;20124;-72
2021/10/12 04:29:12;;;;;;;8.48;3.45;;;9.10;99.90;;;8.66;100.00;102362.84;4201901;28;20025;-72
2021/10/12 04:31:13;;;;;;;6.60;3.85;;;9.00;99.90;;;8.65;100.00;102356.75;4200546;28;20039;-72
2021/10/12 04:33:15;;;;;;;9.95;3.88;;;9.00;99.90;;;8.43;100.00;102361.75;4184230;28;20037;-72
2021/10/12 04:35:16;;;;;;;8.20;3.38;;;8.90;99.90;;;8.46;100.00;102361.53;4201792;28;20617;-71
2021/10/12 04:37:18;;;;;;;7.80;3.00;;;8.90;99.90;;;8.44;100.00;102365.22;4184135;28;20033;-72
2021/10/12 04:39:19;;;;;;;6.85;2.85;;;8.90;99.90;;;8.40;100.00;102363.72;4201567;28;20055;-72
2021/10/12 04:41:20;;;;;;;6.93;2.90;;;8.80;99.90;;;8.55;100.00;102357.44;4201791;28;20108;-72
2021/10/12 04:43:21;;;;;;;7.15;3.30;;;8.90;99.90;;;8.49;100.00;102365.75;4201632;28;20099;-72
2021/10/12 04:45:22;;;;;;;11.25;4.25;;;8.90;99.90;;;8.39;100.00;102357.66;4201675;28;20028;-72
2021/10/12 04:47:23;;;;;;;7.13;3.28;;;8.80;99.90;;;8.42;100.00;102360.09;4201528;28;20025;-72
2021/10/12 04:49:25;;;;;;;9.55;3.10;;;8.80;99.90;;;8.58;100.00;102355.47;4200383;28;20024;-71
2021/10/12 04:51:25;;;;;;;6.57;2.47;;;8.80;99.90;;;8.45;100.00;102348.50;4201598;28;20035;-72
2021/10/12 04:53:27;;;;;;;5.82;3.20;;;8.80;99.90;;;8.33;100.00;102347.56;4200161;28;20028;-71
2021/10/12 04:55:30;;;;;;;4.10;2.90;;;8.70;99.90;;;8.37;100.00;102351.63;4200092;28;20090;-72
2021/10/12 04:57:31;;;;;;;9.95;3.35;;;8.70;99.90;;;8.33;100.00;102361.50;4201586;28;20446;-72
2021/10/12 04:59:32;;;;;;;8.10;3.15;;;8.70;99.90;;;8.27;100.00;102355.81;4200375;28;20020;-72
2021/10/12 05:01:33;;;;;;;6.25;3.35;;;8.70;99.90;;;8.27;100.00;102340.03;4200279;28;20107;-72
2021/10/12 05:03:34;;;;;;;8.20;3.55;;;8.60;99.90;;;8.28;100.00;102347.84;4201238;28;20475;-72
2021/10/12 05:05:35;;;;;;;7.40;3.13;;;8.70;99.90;;;8.24;100.00;102350.75;4201586;28;20029;-71
2021/10/12 05:07:38;;;;;;;7.60;3.30;;;8.60;99.90;;;8.16;100.00;102353.03;4201432;28;20082;-72
2021/10/12 05:09:39;;;;;;;6.40;2.85;;;8.60;99.90;;;8.03;100.00;102339.03;4201439;28;20107;-72
2021/10/12 05:11:40;;;;;;;10.27;4.45;;;8.50;99.90;;;7.99;100.00;102350.66;4200086;28;20029;-71
2021/10/12 05:13:41;;;;;;;6.68;3.88;;;8.50;99.90;;;7.93;100.00;102340.56;4200336;28;20036;-72
2021/10/12 05:15:49;;;;;;;10.40;3.53;;;8.40;99.90;;;7.97;100.00;102348.16;4201363;28;20064;-72
2021/10/12 05:17:50;;;;;;;6.25;3.03;;;8.40;99.90;;;7.95;100.00;102343.91;4201381;28;20024;-72
2021/10/12 05:19:51;;;;;;;9.20;3.22;;;8.40;99.90;;;8.02;100.00;102334.69;4201207;28;20032;-72
2021/10/12 05:21:52;;;;;;;7.25;3.47;;;8.40;99.90;;;8.02;100.00;102338.19;4200204;28;20028;-72
2021/10/12 05:23:53;;;;;;;6.50;2.63;;;8.40;99.90;;;7.69;100.00;102309.69;4201106;28;20104;-72
2021/10/12 05:25:54;;;;;;;8.57;2.83;;;8.40;99.90;;;7.89;100.00;102333.81;4201342;28;20078;-72
2021/10/12 05:27:55;;;;;;;5.30;2.75;;;8.40;99.90;;;7.92;100.00;102331.81;4201168;28;20036;-72
2021/10/12 05:29:57;;;;;;;7.15;2.67;;;8.40;99.90;;;7.93;100.00;102335.31;4202426;28;20488;-72
2021/10/12 05:31:58;;;;;;;4.72;3.28;;;8.30;99.90;;;7.95;100.00;102331.63;4202861;28;20020;-72
2021/10/12 05:33:59;;;;;;;6.88;3.17;;;8.30;99.90;;;8.08;100.00;102336.94;4203198;28;20032;-72
2021/10/12 05:36:00;;;;;;;9.70;3.78;;;8.30;99.90;;;8.13;100.00;102340.94;4202972;28;20028;-72
2021/10/12 05:38:01;;;;;;;7.20;3.25;;;8.40;99.90;;;8.12;100.00;102346.31;4203962;28;20032;-72
2021/10/12 05:40:04;;;;;;;12.40;3.47;;;8.40;99.90;;;8.12;100.00;102344.50;4204439;28;20074;-72
2021/10/12 05:42:05;;;;;;;8.57;3.40;;;8.40;99.90;;;8.21;100.00;102341.25;4204167;28;20078;-72
2021/10/12 05:44:07;;;;;;;10.95;3.55;;;8.40;99.90;;;8.47;100.00;102342.19;4204284;28;20066;-72
2021/10/12 05:46:08;;;;;;;10.32;3.20;;;8.50;99.90;;;8.36;100.00;102338.59;4204239;28;20033;-72
2021/10/12 05:48:10;;;;;;;6.75;3.40;;;8.60;99.90;;;8.22;100.00;102342.09;4204147;28;20099;-72
2021/10/12 05:50:11;;;;;;;9.32;3.30;;;8.60;99.90;;;8.13;100.00;102334.84;4204181;28;20036;-72
2021/10/12 05:52:16;;;;;;;7.35;3.65;;;8.60;99.90;;;8.09;100.00;102341.25;4203935;28;20027;-72
2021/10/12 05:54:19;;;;;;;12.20;3.33;;;8.50;99.90;;;8.37;100.00;102345.53;4202842;28;20039;-72
2021/10/12 05:56:27;;;;;;;9.85;3.40;;;8.50;99.90;;;8.37;100.00;102335.00;4204210;28;20039;-72
2021/10/12 06:00:34;;;;;;;7.00;3.17;;;8.70;99.90;;;8.51;100.00;102340.22;4202908;28;20066;-72
2021/10/12 06:02:35;;;;;;;7.82;3.17;;;8.70;99.90;;;8.32;100.00;102341.44;4202901;28;20037;-72
2021/10/12 06:04:36;;;;;;;11.10;3.88;;;8.80;99.90;;;8.35;100.00;102337.75;4186116;28;20021;-72
2021/10/12 06:06:37;;;;;;;13.02;4.05;;;8.70;99.90;;;8.25;100.00;102337.50;4204016;28;20033;-72
2021/10/12 06:08:40;;;;;;;11.73;3.85;;;8.60;99.90;;;8.24;100.00;102340.25;4202448;28;20052;-72
2021/10/12 06:10:41;;;;;;;7.70;4.00;;;8.60;99.90;;;8.20;100.00;102344.84;4202612;28;20028;-72
2021/10/12 06:12:42;;;;;;;8.20;2.83;;;8.60;99.90;;;8.07;100.00;102322.09;4203874;28;20104;-72
2021/10/12 06:14:43;;;;;;;10.73;4.65;;;8.60;99.90;;;7.94;100.00;102335.22;4203553;28;20403;-72
2021/10/12 06:16:44;;;;;;;10.30;3.60;;;8.50;99.90;;;7.83;100.00;102314.03;4203596;28;21475;-72
2021/10/12 06:18:45;;;;;;;11.82;3.72;;;8.50;99.90;;;8.18;100.00;102351.16;4202784;28;20032;-72
2021/10/12 06:20:48;;;;;;;6.43;2.90;;;8.40;99.90;;;8.00;100.00;102341.84;4203674;28;20112;-71
2021/10/12 06:22:49;;;;;;;8.07;3.20;;;8.50;99.90;;;7.97;100.00;102344.69;4203685;28;20103;-72
2021/10/12 06:24:50;;;;;;;6.65;3.10;;;8.40;99.90;;;8.09;100.00;102346.50;4202259;28;20035;-72
2021/10/12 06:26:51;;;;;;;7.18;3.05;;;8.40;99.90;;;8.14;100.00;102350.50;4203722;28;20082;-72
2021/10/12 06:28:52;;;;;;;9.35;4.15;;;8.40;99.90;;;8.05;100.00;102340.59;4204250;28;20373;-71
2021/10/12 06:30:53;;;;;;;9.35;3.42;;;8.40;99.90;;;7.95;100.00;102336.88;4202975;28;20043;-72
2021/10/12 06:32:54;;;;;;;9.63;3.90;;;8.40;99.90;;;7.94;100.00;102350.13;4204469;28;20411;-72
2021/10/12 06:34:55;;;;;;;8.20;3.35;;;8.30;99.90;;;7.89;100.00;102346.94;4205297;28;20036;-72
2021/10/12 06:36:57;;;;;;;6.43;3.20;;;8.30;99.90;;;7.78;100.00;102342.41;4203653;28;20090;-72
2021/10/12 06:38:58;;;;;;;6.55;3.17;;;8.40;99.90;;;7.78;100.00;102348.50;4204651;28;20446;-72
2021/10/12 06:40:59;;;;;;;9.50;3.33;;;8.30;99.90;;;7.80;100.00;102346.59;4203910;28;20028;-72
2021/10/12 06:43:01;;;;;;;9.52;4.53;;;8.30;99.90;;;7.88;100.00;102347.91;4204468;28;20146;-71
2021/10/12 06:45:03;;;;;;;7.35;3.75;;;8.40;99.90;;;7.90;100.00;102356.53;4204126;28;20016;-71
2021/10/12 06:47:04;;;;;;;8.40;4.05;;;8.30;99.90;;;7.94;100.00;102355.38;4203363;28;20029;-72
2021/10/12 06:49:05;;;;;;;8.48;4.00;;;8.30;99.90;;;7.94;100.00;102358.03;4202887;28;20028;-72
2021/10/12 06:51:06;;;;;;;14.88;4.93;;;8.30;99.90;;;8.04;100.00;102369.59;4203438;28;20101;-72
2021/10/12 06:53:06;;;;;;;8.52;3.13;;;8.40;99.90;;;8.06;100.00;102365.94;4202724;28;20028;-72
2021/10/12 06:55:09;;;;;;;7.30;3.72;;;8.50;99.90;;;8.19;100.00;102374.69;4181837;28;20032;-72
2021/10/12 06:57:11;;;;;;;9.07;3.45;;;8.40;99.90;;;8.17;100.00;102379.22;4199636;28;20024;-72
2021/10/12 06:59:12;;;;;;;5.38;3.00;;;8.50;99.90;;;8.05;100.00;102373.94;4202944;28;20036;-73
2021/10/12 07:01:13;;;;;;;7.88;3.03;;;8.50;99.90;;;8.19;100.00;102385.22;4203118;28;20031;-73
2021/10/12 07:03:14;;;;;;;11.40;4.78;;;8.50;99.90;;;8.44;100.00;102392.38;4203018;28;20029;-70
2021/10/12 07:05:16;;;;;;;4.72;3.50;;;8.60;99.90;;;8.39;100.00;102381.31;4201831;28;20016;-70
2021/10/12 07:07:17;;;;;;;7.90;3.88;;;8.70;99.90;;;8.31;100.00;102367.81;4203079;28;20055;-72
2021/10/12 07:09:19;;;;;;;7.13;4.25;;;8.70;99.90;;;8.32;100.00;102374.78;4201663;28;20107;-72
2021/10/12 07:11:19;;;;;;;8.70;3.58;;;8.70;99.90;;;8.33;100.00;102381.72;4202966;28;20118;-72
2021/10/12 07:13:26;;;;;;;7.57;3.90;;;8.80;99.90;;;8.31;100.00;102373.94;4201555;28;20020;-71
2021/10/12 07:15:27;;;;;;;6.63;3.55;;;8.80;99.90;;;8.27;100.00;102374.22;4203070;28;20028;-71
2021/10/12 07:17:28;;;;;;;12.82;4.22;;;8.80;99.90;;;8.40;100.00;102387.41;4202156;28;20119;-72
2021/10/12 07:19:29;;;;;;;12.40;4.20;;;8.90;99.90;;;8.34;100.00;102383.41;4203553;28;20036;-71
2021/10/12 07:21:31;;;;;;;11.35;4.15;;;8.80;99.90;;;8.45;100.00;102369.56;4202707;28;20090;-73
2021/10/12 07:23:33;;;;;;;9.68;3.80;;;8.80;99.90;;;8.41;100.00;102379.44;4203576;28;20506;-74
2021/10/12 07:25:34;;;;;;;7.05;3.17;;;8.90;99.90;;;8.49;100.00;102374.47;4202269;28;20029;-72
2021/10/12 07:27:35;;;;;;;10.43;4.72;;;9.00;99.90;;;8.73;100.00;102372.84;4185850;28;20036;-72
2021/10/12 07:29:36;;;;;;;7.32;3.63;;;9.00;99.90;;;8.76;100.00;102363.88;4202352;28;20017;-71
2021/10/12 07:31:37;;;;;;;6.95;3.75;;;9.10;99.90;;;8.96;100.00;102360.72;4185846;28;20063;-72
2021/10/12 07:33:38;;;;;;;10.02;4.32;;;9.20;99.90;;;9.00;100.00;102374.50;4218956;28;20060;-71
2021/10/12 07:35:43;;;;;;;10.80;4.05;;;9.30;99.90;;;9.07;100.00;102379.25;4185925;28;20075;-72
2021/10/12 07:37:44;;;;;;;8.38;3.53;;;9.40;99.90;;;8.95;100.00;102374.84;4201865;28;20025;-71
2021/10/12 07:39:45;;;;;;;10.80;3.40;;;9.50;99.90;;;9.04;100.00;102379.47;4203975;28;20581;-71
2021/10/12 07:41:46;;;;;;;10.32;3.88;;;9.40;99.90;;;8.98;100.00;102384.31;4202129;28;20108;-71
2021/10/12 07:43:47;;;;;;;5.95;3.22;;;9.50;99.90;;;9.03;100.00;102372.53;4190561;28;20033;-71
2021/10/12 07:45:49;;;;;;;7.82;3.60;;;9.50;99.90;;;9.03;100.00;102382.19;4202693;28;20048;-71
2021/10/12 07:47:50;;;;;;;6.70;3.78;;;9.50;99.90;;;9.04;100.00;102378.63;4201327;28;20457;-71
2021/10/12 07:49:51;;;;;;;7.85;3.10;;;9.60;99.90;;;9.00;100.00;102369.25;4201104;28;20024;-71
2021/10/12 07:51:52;;;;;;;11.23;3.90;;;9.60;99.90;;;8.96;100.00;102388.84;4202417;28;20104;-71
2021/10/12 07:53:58;;;;;;;9.10;4.43;;;9.60;99.90;;;8.99;100.00;102391.28;4201790;28;20024;-71
2021/10/12 07:56:01;;;;;;;7.60;3.55;;;9.60;99.90;;;9.08;100.00;102396.72;4202438;28;20028;-71
2021/10/12 07:58:03;;;;;;;11.13;4.80;;;9.60;99.90;;;9.06;100.00;102379.34;4202363;28;20024;-71
2021/10/12 08:00:05;;;;;;;13.63;4.10;;;9.60;99.90;;;9.06;100.00;102382.84;4200964;28;20059;-72
2021/10/12 08:02:07;;;;;;;9.02;4.65;;;9.60;99.90;;;9.10;100.00;102375.56;4200882;28;20125;-71
2021/10/12 08:04:07;;;;;;;10.38;3.78;;;9.70;99.90;;;9.24;100.00;102385.97;4201922;28;20108;-71
2021/10/12 08:06:08;;;;;;;11.55;4.78;;;9.60;99.90;;;9.37;100.00;102373.66;4201653;28;20392;-71
2021/10/12 08:08:09;;;;;;;6.45;4.20;;;9.80;99.90;;;9.37;100.00;102373.66;4200173;28;20048;-71
2021/10/12 08:10:10;;;;;;;6.90;3.30;;;9.80;99.90;;;9.34;100.00;102376.50;4194606;28;20020;-71
2021/10/12 08:12:11;;;;;;;11.30;5.43;;;9.90;99.90;;;9.39;100.00;102367.31;4201853;28;20028;-71
2021/10/12 08:14:17;;;;;;;12.18;4.53;;;9.90;99.90;;;9.44;100.00;102377.50;4199353;28;20032;-71
2021/10/12 08:16:23;;;;;;;9.02;4.05;;;9.90;99.90;;;9.47;100.00;102372.03;4200022;28;20530;-72
2021/10/12 08:18:24;;;;;;;8.25;3.67;;;10.00;99.90;;;9.56;100.00;102376.63;4199586;28;20075;-72
2021/10/12 08:20:26;;;;;;;5.82;4.28;;;10.00;99.90;;;9.67;100.00;102381.16;4201799;28;20033;-72
2021/10/12 08:22:27;;;;;;;7.63;4.20;;;10.10;99.90;;;9.59;100.00;102380.88;4200356;28;20044;-72
2021/10/12 08:24:28;;;;;;;7.47;3.80;;;10.20;99.90;;;9.65;100.00;102375.97;4201792;28;20028;-71
2021/10/12 08:26:29;;;;;;;7.38;4.05;;;10.20;99.90;;;9.77;100.00;102390.91;4200514;28;20111;-72
2021/10/12 08:28:30;;;;;;;7.28;3.47;;;10.30;99.90;;;9.81;100.00;102386.25;4200747;28;20033;-72
2021/10/12 08:30:31;;;;;;;9.55;4.13;;;10.30;99.90;;;9.78;100.00;102392.59;4202041;28;20094;-72